Time;durP1;ratioP1;P1;durP2;ratioP2;P2;SDS_P1;SDS_P2;PMS_P1;PMS_P2;Temp;Humidity;BMP_temperature;BMP_pressure;BME280_temperature;BME280_humidity;BME280_pressure;Samples;Min_cycle;Max_cycle;Signal;HPM_P1;HPM_P2
2022/01/02 00:02:00;;;;;;;;;;;;;;;;;;3;117047989;130554228;-85
2022/01/02 00:08:19;;;;;;;;;26.00;18.00;;;;;;;;3;117065381;130558461;-84
2022/01/02 00:14:47;;;;;;;;;19.00;19.00;;;;;;;;3;130565009;139560029;-84
2022/01/02 00:21:29;;;;;;;;;24.50;13.50;;;;;;;;3;130554745;139568950;-85
2022/01/02 00:27:56;;;;;;;;;;;;;;;;;;3;117049669;130554909;-85
2022/01/02 00:34:14;;;;;;;;;16.50;16.50;;;;;;;;3;117062048;129817301;-85
2022/01/02 00:40:44;;;;;;;;;6.50;6.50;;;;;;;;3;130564378;139561848;-86
2022/01/02 00:47:31;;;;;;;;;10.50;10.50;;;;;;;;3;130555065;139566636;-86
2022/01/02 00:53:59;;;;;;;;;;;;;;;;;;3;117048052;130553618;-86
2022/01/02 01:00:17;;;;;;;;;13.50;13.50;;;;;;;;3;117060888;130555822;-86
2022/01/02 01:06:48;;;;;;;;;3.50;3.50;;;;;;;;3;130563274;139558803;-86
2022/01/02 01:13:29;;;;;;;;;10.00;10.00;;;;;;;;3;130553206;139132548;-86
2022/01/02 01:19:57;;;;;;;;;;;;;;;;;;3;117049923;130552296;-84
2022/01/02 01:26:17;;;;;;;;;23.00;16.00;;;;;;;;3;117062994;130555973;-84
2022/01/02 01:32:44;;;;;;;;;17.00;8.00;;;;;;;;3;130564273;139558515;-84
2022/01/02 01:39:26;;;;;;;;;12.00;8.50;;;;;;;;3;130554251;139567279;-84
2022/01/02 01:45:53;;;;;;;;;;;;;;;;;;3;117051632;130553150;-85
2022/01/02 01:52:10;;;;;;;;;12.50;12.50;;;;;;;;3;117062891;130555927;-86
2022/01/02 01:58:38;;;;;;;;;19.00;11.00;;;;;;;;3;130566636;139557320;-86
2022/01/02 02:05:19;;;;;;;;;12.50;12.50;;;;;;;;3;130554754;139567365;-85
2022/01/02 02:11:46;;;;;;;;;;;;;;;;;;3;117050543;130553961;-85
2022/01/02 02:18:05;;;;;;;;;14.00;14.00;;;;;;;;3;117063175;130554871;-86
2022/01/02 02:24:32;;;;;;;;;8.00;6.50;;;;;;;;3;130562687;139557131;-86
2022/01/02 02:31:12;;;;;;;;;13.50;5.50;;;;;;;;3;130554331;139567384;-86
2022/01/02 02:37:41;;;;;;;;;;;;;;;;;;3;117051392;130554788;-86
2022/01/02 02:44:17;;;;;;;;;18.00;10.00;;;;;;;;3;117063382;130556498;-85
2022/01/02 02:50:46;;;;;;;;;9.00;9.00;;;;;;;;3;130563276;139558367;-86
2022/01/02 02:57:27;;;;;;;;;9.50;4.50;;;;;;;;3;130552333;139565974;-85
2022/01/02 03:03:54;;;;;;;;;;;;;;;;;;3;117047004;130442925;-85
2022/01/02 03:10:13;;;;;;;;;16.00;16.00;;;;;;;;3;116366925;130554848;-85
2022/01/02 03:16:40;;;;;;;;;11.00;11.00;;;;;;;;3;130562565;139556790;-86
2022/01/02 03:23:21;;;;;;;;;10.00;10.00;;;;;;;;3;130553107;139567668;-85
2022/01/02 03:29:48;;;;;;;;;;;;;;;;;;3;117049185;130554133;-85
2022/01/02 03:36:07;;;;;;;;;9.00;9.00;;;;;;;;3;117062221;130555345;-86
2022/01/02 03:42:34;;;;;;;;;8.00;8.00;;;;;;;;3;129508517;139556524;-86
2022/01/02 03:49:15;;;;;;;;;5.50;5.50;;;;;;;;3;130555428;139566865;-85
2022/01/02 03:55:43;;;;;;;;;;;;;;;;;;3;117050172;130553547;-85
2022/01/02 04:02:01;;;;;;;;;22.00;13.50;;;;;;;;3;117063420;130554619;-86
2022/01/02 04:08:29;;;;;;;;;9.00;9.00;;;;;;;;3;130562747;139556657;-85
2022/01/02 04:15:10;;;;;;;;;1.50;1.50;;;;;;;;3;130554466;139510791;-85
2022/01/02 04:21:38;;;;;;;;;;;;;;;;;;3;117049701;130555445;-85
2022/01/02 04:27:56;;;;;;;;;9.00;9.00;;;;;;;;3;117063406;130555134;-86
2022/01/02 04:34:24;;;;;;;;;2.50;2.50;;;;;;;;3;130564335;139557424;-85
2022/01/02 04:41:05;;;;;;;;;8.50;3.50;;;;;;;;3;130554061;139570201;-86
2022/01/02 04:47:32;;;;;;;;;;;;;;;;;;3;117049459;130553525;-85
2022/01/02 04:53:50;;;;;;;;;22.50;14.50;;;;;;;;3;117063283;130553026;-85
2022/01/02 05:00:18;;;;;;;;;6.00;6.00;;;;;;;;3;130563561;139554215;-85
2022/01/02 05:06:59;;;;;;;;;7.00;3.00;;;;;;;;3;130552271;139562441;-85
2022/01/02 05:13:26;;;;;;;;;;;;;;;;;;3;117043533;130547541;-86
2022/01/02 05:19:44;;;;;;;;;9.00;9.00;;;;;;;;3;117055962;130547334;-86
2022/01/02 05:26:12;;;;;;;;;7.00;7.00;;;;;;;;3;130564519;139218975;-85
2022/01/02 05:32:52;;;;;;;;;3.00;3.00;;;;;;;;3;130552671;139565204;-85
2022/01/02 05:39:20;;;;;;;;;;;;;;;;;;3;117050353;130554808;-85
2022/01/02 05:45:38;;;;;;;;;6.50;6.50;;;;;;;;3;117062862;130554968;-85
2022/01/02 05:52:06;;;;;;;;;4.00;4.00;;;;;;;;3;130564300;139556413;-85
2022/01/02 05:58:47;;;;;;;;;5.00;5.00;;;;;;;;3;130557664;139567695;-86
2022/01/02 06:05:14;;;;;;;;;;;;;;;;;;3;117050290;130554003;-85
2022/01/02 06:11:30;;;;;;;;;8.00;8.00;;;;;;;;3;115216549;128239078;-86
2022/01/02 06:17:55;;;;;;;;;4.50;4.50;;;;;;;;3;127917080;139555968;-86
2022/01/02 06:24:26;;;;;;;;;3.50;3.50;;;;;;;;3;129047072;131486654;-86
2022/01/02 06:30:48;;;;;;;;;;;;;;;;;;3;111653118;130407336;-85
2022/01/02 06:37:05;;;;;;;;;3.50;3.50;;;;;;;;3;117035225;129170984;-86
2022/01/02 06:43:33;;;;;;;;;2.50;2.50;;;;;;;;3;130562482;139556661;-85
2022/01/02 06:50:14;;;;;;;;;4.00;4.00;;;;;;;;3;130554638;139567553;-86
2022/01/02 06:56:39;;;;;;;;;;;;;;;;;;3;117049594;128744643;-85
2022/01/02 07:02:58;;;;;;;;;7.00;7.00;;;;;;;;3;117062740;130553065;-85
2022/01/02 07:09:25;;;;;;;;;1.00;1.00;;;;;;;;3;130563767;139556627;-86
2022/01/02 07:16:06;;;;;;;;;16.00;4.00;;;;;;;;3;130553728;139568390;-85
2022/01/02 07:22:33;;;;;;;;;;;;;;;;;;3;117049439;130555012;-86
2022/01/02 07:28:51;;;;;;;;;7.00;7.00;;;;;;;;3;117062821;130555495;-86
2022/01/02 07:35:19;;;;;;;;;6.50;6.50;;;;;;;;3;130562770;139559028;-85
2022/01/02 07:42:00;;;;;;;;;1.50;1.50;;;;;;;;3;130554600;139569952;-85
2022/01/02 07:48:27;;;;;;;;;;;;;;;;;;3;117048421;130157447;-86
2022/01/02 07:54:45;;;;;;;;;3.50;3.50;;;;;;;;3;117064248;130555423;-86
2022/01/02 08:01:13;;;;;;;;;2.50;2.50;;;;;;;;3;130563536;139560037;-86
2022/01/02 08:07:56;;;;;;;;;4.50;4.50;;;;;;;;3;130555738;139565678;-86
2022/01/02 08:14:23;;;;;;;;;;;;;;;;;;3;117049401;130554047;-86
2022/01/02 08:20:36;;;;;;;;;5.50;5.50;;;;;;;;3;117050360;124900714;-86
2022/01/02 08:27:03;;;;;;;;;4.50;4.50;;;;;;;;3;130570858;138586472;-85
2022/01/02 08:33:44;;;;;;;;;5.00;5.00;;;;;;;;3;130552740;139567495;-86
2022/01/02 08:40:11;;;;;;;;;;;;;;;;;;3;117049772;130556032;-85
2022/01/02 08:46:30;;;;;;;;;6.50;6.50;;;;;;;;3;117062601;130556031;-85
2022/01/02 08:52:57;;;;;;;;;3.50;3.50;;;;;;;;3;130566271;139558185;-86
2022/01/02 08:59:37;;;;;;;;;4.00;4.00;;;;;;;;3;130557601;139567699;-86
2022/01/02 09:06:04;;;;;;;;;;;;;;;;;;3;117049009;130552240;-86
2022/01/02 09:12:22;;;;;;;;;22.50;7.50;;;;;;;;3;117066210;130555927;-84
2022/01/02 09:18:50;;;;;;;;;6.50;2.50;;;;;;;;3;130562906;139558549;-87
2022/01/02 09:25:31;;;;;;;;;3.00;3.00;;;;;;;;3;130555790;139567933;-87
2022/01/02 09:31:58;;;;;;;;;;;;;;;;;;3;117051452;130557251;-87
2022/01/02 09:38:14;;;;;;;;;6.50;6.50;;;;;;;;3;117064133;130555699;-86
2022/01/02 09:44:42;;;;;;;;;11.00;2.50;;;;;;;;3;130564893;139560225;-87
2022/01/02 09:51:24;;;;;;;;;2.50;2.50;;;;;;;;3;130556249;139571894;-87
2022/01/02 09:57:46;;;;;;;;;;;;;;;;;;3;111365271;130556280;-86
2022/01/02 10:04:04;;;;;;;;;5.50;5.50;;;;;;;;3;117063714;130557410;-87
2022/01/02 10:10:32;;;;;;;;;2.50;2.50;;;;;;;;3;129822096;130564468;-89
2022/01/02 10:17:20;;;;;;;;;1.50;1.50;;;;;;;;3;130555418;139567040;-88
2022/01/02 10:23:48;;;;;;;;;;;;;;;;;;3;117051244;130554117;-93
2022/01/02 10:30:06;;;;;;;;;8.50;8.50;;;;;;;;3;117070879;130554614;-92
2022/01/02 10:36:40;;;;;;;;;4.00;4.00;;;;;;;;3;130564337;139557555;-91
2022/01/02 10:43:31;;;;;;;;;2.00;2.00;;;;;;;;3;130553728;139567840;-91
2022/01/02 10:49:59;;;;;;;;;;;;;;;;;;3;117049279;130555117;-91
2022/01/02 10:56:17;;;;;;;;;5.00;5.00;;;;;;;;3;115719213;130557935;-91
2022/01/02 11:02:45;;;;;;;;;0.50;0.50;;;;;;;;3;130564076;139557075;-91
2022/01/02 11:09:33;;;;;;;;;0.50;0.50;;;;;;;;3;130555886;139564370;-92
2022/01/02 11:16:01;;;;;;;;;;;;;;;;;;3;117047082;130552795;-92
2022/01/02 11:22:26;;;;;;;;;4.50;4.50;;;;;;;;3;117061701;130554663;-91
2022/01/02 11:28:53;;;;;;;;;1.00;1.00;;;;;;;;3;130564442;139555405;-90
2022/01/02 11:35:36;;;;;;;;;1.50;1.50;;;;;;;;3;130554678;139389322;-92
2022/01/02 11:42:03;;;;;;;;;;;;;;;;;;3;117048614;130552913;-90
2022/01/02 11:48:28;;;;;;;;;4.00;4.00;;;;;;;;3;117060894;130556667;-87
2022/01/02 11:54:56;;;;;;;;;2.50;2.50;;;;;;;;3;130565704;139558766;-91
2022/01/02 12:01:45;;;;;;;;;0.00;0.00;;;;;;;;3;130553121;139566466;-91
2022/01/02 13:29:11;;;;;;;;;1.50;1.50;;;;;;;;3;114802587;126361427;-87
2022/01/02 14:29:08;;;;;;;;;4.50;4.50;;;;;;;;3;113861572;125137161;-83
2022/01/02 14:42:52;;;;;;;;;0.00;0.00;;;;;;;;3;130607515;134516671;-87
2022/01/02 15:14:44;;;;;;;;;0.00;0.00;;;;;;;;3;111313674;118156688;-88
2022/01/02 15:28:23;;;;;;;;;;;;;;;;;;;;;
2022/01/02 15:42:27;;;;;;;;;;;;;;;;;;;;;
